sensor_id;sensor_type;location;lat;lon;timestamp;P1;durP1;ratioP1;P2;durP2;ratioP2
45232;SDS011;30969;51.052;17.056;2023-04-24T04:55:20;19.88;;;13.05;;
45232;SDS011;30969;51.052;17.056;2023-04-24T05:00:24;20.00;;;12.93;;
45232;SDS011;30969;51.052;17.056;2023-04-24T05:05:28;16.63;;;12.30;;
45232;SDS011;30969;51.052;17.056;2023-04-24T05:10:32;17.02;;;12.45;;
45232;SDS011;30969;51.052;17.056;2023-04-24T05:15:36;14.95;;;11.77;;
45232;SDS011;30969;51.052;17.056;2023-04-24T05:20:40;13.40;;;9.88;;
45232;SDS011;30969;51.052;17.056;2023-04-24T05:25:46;14.70;;;9.35;;
45232;SDS011;30969;51.052;17.056;2023-04-24T05:30:50;14.25;;;9.15;;
45232;SDS011;30969;51.052;17.056;2023-04-24T05:35:53;11.80;;;9.20;;
45232;SDS011;30969;51.052;17.056;2023-04-24T05:40:59;11.63;;;7.75;;
45232;SDS011;30969;51.052;17.056;2023-04-24T05:46:03;10.80;;;6.80;;
45232;SDS011;30969;51.052;17.056;2023-04-24T05:51:06;12.55;;;7.45;;
45232;SDS011;30969;51.052;17.056;2023-04-24T05:56:11;9.77;;;7.15;;
45232;SDS011;30969;51.052;17.056;2023-04-24T06:01:14;12.48;;;6.80;;
45232;SDS011;30969;51.052;17.056;2023-04-24T06:06:18;7.95;;;6.38;;
45232;SDS011;30969;51.052;17.056;2023-04-24T06:11:23;10.10;;;6.22;;
45232;SDS011;30969;51.052;17.056;2023-04-24T06:16:27;11.95;;;6.40;;
45232;SDS011;30969;51.052;17.056;2023-04-24T06:21:30;9.35;;;6.78;;
45232;SDS011;30969;51.052;17.056;2023-04-24T06:26:35;10.32;;;6.55;;
45232;SDS011;30969;51.052;17.056;2023-04-24T06:31:39;9.20;;;6.18;;
45232;SDS011;30969;51.052;17.056;2023-04-24T06:36:42;9.88;;;5.60;;
45232;SDS011;30969;51.052;17.056;2023-04-24T06:41:47;10.65;;;6.43;;
45232;SDS011;30969;51.052;17.056;2023-04-24T06:46:51;9.65;;;5.70;;
45232;SDS011;30969;51.052;17.056;2023-04-24T06:51:54;8.80;;;6.10;;
45232;SDS011;30969;51.052;17.056;2023-04-24T06:57:00;11.70;;;6.28;;
45232;SDS011;30969;51.052;17.056;2023-04-24T07:02:04;10.23;;;6.35;;
45232;SDS011;30969;51.052;17.056;2023-04-24T07:07:08;9.63;;;6.55;;
45232;SDS011;30969;51.052;17.056;2023-04-24T07:12:16;7.57;;;5.93;;
45232;SDS011;30969;51.052;17.056;2023-04-24T07:17:22;7.95;;;6.30;;
45232;SDS011;30969;51.052;17.056;2023-04-24T07:22:25;8.88;;;5.80;;
45232;SDS011;30969;51.052;17.056;2023-04-24T07:27:30;13.82;;;5.82;;
45232;SDS011;30969;51.052;17.056;2023-04-24T07:32:33;7.05;;;5.72;;
45232;SDS011;30969;51.052;17.056;2023-04-24T07:37:37;10.52;;;6.63;;
45232;SDS011;30969;51.052;17.056;2023-04-24T07:42:42;8.85;;;5.47;;
45232;SDS011;30969;51.052;17.056;2023-04-24T07:47:46;8.00;;;4.97;;
45232;SDS011;30969;51.052;17.056;2023-04-24T07:52:50;5.60;;;4.97;;
45232;SDS011;30969;51.052;17.056;2023-04-24T07:57:54;9.07;;;5.65;;
45232;SDS011;30969;51.052;17.056;2023-04-24T08:02:58;8.43;;;5.68;;
45232;SDS011;30969;51.052;17.056;2023-04-24T08:08:01;6.40;;;4.82;;
45232;SDS011;30969;51.052;17.056;2023-04-24T08:13:06;9.38;;;5.70;;
45232;SDS011;30969;51.052;17.056;2023-04-24T08:18:10;10.07;;;5.80;;
45232;SDS011;30969;51.052;17.056;2023-04-24T08:23:15;7.10;;;5.38;;
45232;SDS011;30969;51.052;17.056;2023-04-24T08:28:20;7.95;;;5.75;;
45232;SDS011;30969;51.052;17.056;2023-04-24T08:33:23;8.20;;;5.15;;
45232;SDS011;30969;51.052;17.056;2023-04-24T08:38:27;7.03;;;5.13;;
45232;SDS011;30969;51.052;17.056;2023-04-24T08:43:32;9.35;;;5.78;;
45232;SDS011;30969;51.052;17.056;2023-04-24T08:48:38;12.63;;;6.57;;
45232;SDS011;30969;51.052;17.056;2023-04-24T08:53:42;11.10;;;7.28;;
45232;SDS011;30969;51.052;17.056;2023-04-24T08:58:47;7.82;;;6.38;;
45232;SDS011;30969;51.052;17.056;2023-04-24T09:03:51;7.75;;;6.07;;
45232;SDS011;30969;51.052;17.056;2023-04-24T09:08:56;8.57;;;6.15;;
45232;SDS011;30969;51.052;17.056;2023-04-24T09:14:04;8.82;;;6.20;;
45232;SDS011;30969;51.052;17.056;2023-04-24T09:19:07;10.18;;;8.00;;
45232;SDS011;30969;51.052;17.056;2023-04-24T09:24:14;11.75;;;6.68;;
45232;SDS011;30969;51.052;17.056;2023-04-24T09:29:20;7.63;;;6.03;;
45232;SDS011;30969;51.052;17.056;2023-04-24T09:34:24;8.45;;;6.70;;
45232;SDS011;30969;51.052;17.056;2023-04-24T09:39:29;9.43;;;6.93;;
45232;SDS011;30969;51.052;17.056;2023-04-24T09:44:34;8.27;;;6.72;;
45232;SDS011;30969;51.052;17.056;2023-04-24T09:49:37;7.70;;;6.47;;
45232;SDS011;30969;51.052;17.056;2023-04-24T09:54:46;7.88;;;6.10;;
45232;SDS011;30969;51.052;17.056;2023-04-24T09:59:57;7.50;;;6.07;;
45232;SDS011;30969;51.052;17.056;2023-04-24T10:05:00;7.25;;;5.35;;
45232;SDS011;30969;51.052;17.056;2023-04-24T10:10:04;8.20;;;5.82;;
45232;SDS011;30969;51.052;17.056;2023-04-24T10:15:11;6.93;;;5.65;;
45232;SDS011;30969;51.052;17.056;2023-04-24T10:20:15;9.93;;;6.07;;
45232;SDS011;30969;51.052;17.056;2023-04-24T10:25:20;7.32;;;6.00;;
45232;SDS011;30969;51.052;17.056;2023-04-24T10:30:27;6.65;;;5.25;;
45232;SDS011;30969;51.052;17.056;2023-04-24T10:35:35;7.18;;;6.00;;
45232;SDS011;30969;51.052;17.056;2023-04-24T10:40:43;9.20;;;6.13;;
45232;SDS011;30969;51.052;17.056;2023-04-24T10:46:01;8.57;;;5.65;;
45232;SDS011;30969;51.052;17.056;2023-04-24T10:51:05;9.05;;;6.70;;
45232;SDS011;30969;51.052;17.056;2023-04-24T10:56:15;12.70;;;7.07;;
45232;SDS011;30969;51.052;17.056;2023-04-24T11:01:27;8.23;;;5.88;;
45232;SDS011;30969;51.052;17.056;2023-04-24T11:06:32;8.70;;;6.72;;
45232;SDS011;30969;51.052;17.056;2023-04-24T11:11:38;7.47;;;5.80;;
45232;SDS011;30969;51.052;17.056;2023-04-24T11:16:52;8.00;;;6.20;;
45232;SDS011;30969;51.052;17.056;2023-04-24T11:21:58;8.63;;;6.40;;
45232;SDS011;30969;51.052;17.056;2023-04-24T11:27:07;7.25;;;5.97;;
45232;SDS011;30969;51.052;17.056;2023-04-24T11:32:27;8.93;;;5.70;;
45232;SDS011;30969;51.052;17.056;2023-04-24T11:37:33;8.10;;;6.13;;
45232;SDS011;30969;51.052;17.056;2023-04-24T11:42:39;9.80;;;6.93;;
45232;SDS011;30969;51.052;17.056;2023-04-24T11:47:45;9.40;;;6.05;;
45232;SDS011;30969;51.052;17.056;2023-04-24T11:52:49;6.25;;;5.10;;
45232;SDS011;30969;51.052;17.056;2023-04-24T11:57:54;6.47;;;5.68;;
45232;SDS011;30969;51.052;17.056;2023-04-24T12:03:07;7.97;;;6.53;;
45232;SDS011;30969;51.052;17.056;2023-04-24T12:08:12;10.55;;;6.38;;
45232;SDS011;30969;51.052;17.056;2023-04-24T12:13:30;8.13;;;6.55;;
45232;SDS011;30969;51.052;17.056;2023-04-24T12:18:42;9.02;;;6.07;;
45232;SDS011;30969;51.052;17.056;2023-04-24T12:23:46;9.85;;;5.68;;
45232;SDS011;30969;51.052;17.056;2023-04-24T12:28:50;6.47;;;5.57;;
45232;SDS011;30969;51.052;17.056;2023-04-24T12:33:55;8.57;;;6.18;;
45232;SDS011;30969;51.052;17.056;2023-04-24T12:38:58;10.93;;;6.35;;
45232;SDS011;30969;51.052;17.056;2023-04-24T12:44:02;7.95;;;6.18;;
45232;SDS011;30969;51.052;17.056;2023-04-24T12:49:07;8.32;;;6.07;;
45232;SDS011;30969;51.052;17.056;2023-04-24T12:54:11;8.82;;;5.47;;
45232;SDS011;30969;51.052;17.056;2023-04-24T12:59:14;7.28;;;5.70;;
45232;SDS011;30969;51.052;17.056;2023-04-24T13:04:19;7.32;;;5.65;;
45232;SDS011;30969;51.052;17.056;2023-04-24T13:09:23;8.90;;;7.05;;
45232;SDS011;30969;51.052;17.056;2023-04-24T13:14:26;5.22;;;4.30;;
45232;SDS011;30969;51.052;17.056;2023-04-24T13:19:36;6.13;;;4.03;;
45232;SDS011;30969;51.052;17.056;2023-04-24T13:24:40;4.95;;;2.58;;
45232;SDS011;30969;51.052;17.056;2023-04-24T13:29:45;6.00;;;4.15;;
45232;SDS011;30969;51.052;17.056;2023-04-24T13:34:50;3.58;;;2.13;;
45232;SDS011;30969;51.052;17.056;2023-04-24T13:39:53;3.45;;;2.03;;
45232;SDS011;30969;51.052;17.056;2023-04-24T13:44:57;6.97;;;2.67;;
45232;SDS011;30969;51.052;17.056;2023-04-24T13:50:06;3.70;;;2.35;;
45232;SDS011;30969;51.052;17.056;2023-04-24T13:55:11;4.70;;;2.38;;
45232;SDS011;30969;51.052;17.056;2023-04-24T14:00:15;3.53;;;1.77;;
45232;SDS011;30969;51.052;17.056;2023-04-24T14:05:20;4.70;;;1.80;;
45232;SDS011;30969;51.052;17.056;2023-04-24T14:10:24;3.75;;;1.65;;
45232;SDS011;30969;51.052;17.056;2023-04-24T14:15:28;4.07;;;2.03;;
45232;SDS011;30969;51.052;17.056;2023-04-24T14:20:33;4.80;;;1.70;;
45232;SDS011;30969;51.052;17.056;2023-04-24T14:25:37;3.38;;;2.20;;
45232;SDS011;30969;51.052;17.056;2023-04-24T14:30:41;3.33;;;1.90;;
45232;SDS011;30969;51.052;17.056;2023-04-24T14:35:46;5.00;;;2.00;;
45232;SDS011;30969;51.052;17.056;2023-04-24T14:40:49;4.30;;;1.88;;
45232;SDS011;30969;51.052;17.056;2023-04-24T14:46:08;4.57;;;2.13;;
45232;SDS011;30969;51.052;17.056;2023-04-24T14:51:13;4.85;;;3.15;;
45232;SDS011;30969;51.052;17.056;2023-04-24T14:56:16;5.18;;;2.83;;
45232;SDS011;30969;51.052;17.056;2023-04-24T15:01:20;5.43;;;3.13;;
45232;SDS011;30969;51.052;17.056;2023-04-24T15:06:25;7.43;;;1.88;;
45232;SDS011;30969;51.052;17.056;2023-04-24T15:11:29;3.35;;;1.40;;
45232;SDS011;30969;51.052;17.056;2023-04-24T15:16:33;1.23;;;0.80;;
45232;SDS011;30969;51.052;17.056;2023-04-24T15:21:38;4.13;;;1.30;;
45232;SDS011;30969;51.052;17.056;2023-04-24T15:26:43;10.73;;;1.40;;
45232;SDS011;30969;51.052;17.056;2023-04-24T15:31:46;3.70;;;2.53;;
45232;SDS011;30969;51.052;17.056;2023-04-24T15:36:51;5.68;;;2.97;;
45232;SDS011;30969;51.052;17.056;2023-04-24T15:41:55;6.10;;;2.90;;
45232;SDS011;30969;51.052;17.056;2023-04-24T15:47:00;4.18;;;2.53;;
45232;SDS011;30969;51.052;17.056;2023-04-24T15:52:06;3.85;;;1.75;;
45232;SDS011;30969;51.052;17.056;2023-04-24T15:57:11;4.57;;;2.33;;
45232;SDS011;30969;51.052;17.056;2023-04-24T16:02:14;3.55;;;1.70;;
45232;SDS011;30969;51.052;17.056;2023-04-24T16:07:21;5.65;;;3.25;;
45232;SDS011;30969;51.052;17.056;2023-04-24T16:12:25;5.82;;;3.05;;
45232;SDS011;30969;51.052;17.056;2023-04-24T16:17:29;5.88;;;3.08;;
45232;SDS011;30969;51.052;17.056;2023-04-24T16:22:34;5.93;;;3.22;;
45232;SDS011;30969;51.052;17.056;2023-04-24T16:27:38;7.70;;;2.75;;
45232;SDS011;30969;51.052;17.056;2023-04-24T16:32:41;5.50;;;3.30;;
45232;SDS011;30969;51.052;17.056;2023-04-24T16:37:46;7.45;;;3.75;;
45232;SDS011;30969;51.052;17.056;2023-04-24T16:42:49;6.15;;;3.63;;
45232;SDS011;30969;51.052;17.056;2023-04-24T16:47:53;8.15;;;3.22;;
45232;SDS011;30969;51.052;17.056;2023-04-24T16:52:58;6.70;;;4.22;;
45232;SDS011;30969;51.052;17.056;2023-04-24T16:58:02;6.90;;;4.10;;
45232;SDS011;30969;51.052;17.056;2023-04-24T17:03:05;6.53;;;3.95;;
45232;SDS011;30969;51.052;17.056;2023-04-24T17:08:13;9.98;;;4.90;;
45232;SDS011;30969;51.052;17.056;2023-04-24T17:13:17;5.90;;;3.47;;
45232;SDS011;30969;51.052;17.056;2023-04-24T17:18:21;10.70;;;5.10;;
45232;SDS011;30969;51.052;17.056;2023-04-24T17:23:26;8.75;;;4.65;;
45232;SDS011;30969;51.052;17.056;2023-04-24T17:28:30;13.20;;;6.45;;
45232;SDS011;30969;51.052;17.056;2023-04-24T17:33:34;16.27;;;6.78;;
45232;SDS011;30969;51.052;17.056;2023-04-24T17:38:39;8.18;;;4.60;;
45232;SDS011;30969;51.052;17.056;2023-04-24T17:43:43;5.30;;;3.38;;
45232;SDS011;30969;51.052;17.056;2023-04-24T17:48:46;11.07;;;5.60;;
45232;SDS011;30969;51.052;17.056;2023-04-24T17:53:51;8.90;;;3.60;;
45232;SDS011;30969;51.052;17.056;2023-04-24T17:58:55;5.07;;;3.63;;
45232;SDS011;30969;51.052;17.056;2023-04-24T18:03:59;7.75;;;4.70;;
45232;SDS011;30969;51.052;17.056;2023-04-24T18:09:05;6.30;;;3.25;;
45232;SDS011;30969;51.052;17.056;2023-04-24T18:14:09;8.65;;;3.83;;
45232;SDS011;30969;51.052;17.056;2023-04-24T18:19:12;7.22;;;4.22;;
45232;SDS011;30969;51.052;17.056;2023-04-24T18:24:17;8.32;;;4.95;;
45232;SDS011;30969;51.052;17.056;2023-04-24T18:29:23;9.50;;;5.13;;
45232;SDS011;30969;51.052;17.056;2023-04-24T18:34:26;7.38;;;4.47;;
45232;SDS011;30969;51.052;17.056;2023-04-24T18:39:33;8.63;;;4.53;;
45232;SDS011;30969;51.052;17.056;2023-04-24T18:44:36;10.55;;;6.15;;
45232;SDS011;30969;51.052;17.056;2023-04-24T18:49:41;8.68;;;5.85;;
45232;SDS011;30969;51.052;17.056;2023-04-24T18:54:47;7.60;;;4.28;;
45232;SDS011;30969;51.052;17.056;2023-04-24T18:59:51;10.95;;;7.05;;
45232;SDS011;30969;51.052;17.056;2023-04-24T19:04:54;8.85;;;5.30;;
45232;SDS011;30969;51.052;17.056;2023-04-24T19:09:59;10.18;;;5.72;;
45232;SDS011;30969;51.052;17.056;2023-04-24T19:15:03;10.60;;;6.30;;
45232;SDS011;30969;51.052;17.056;2023-04-24T19:20:07;8.00;;;5.18;;
45232;SDS011;30969;51.052;17.056;2023-04-24T19:25:13;9.07;;;6.45;;
45232;SDS011;30969;51.052;17.056;2023-04-24T19:30:16;11.90;;;7.50;;
45232;SDS011;30969;51.052;17.056;2023-04-24T19:35:20;12.95;;;7.38;;
45232;SDS011;30969;51.052;17.056;2023-04-24T19:40:26;11.57;;;8.15;;
45232;SDS011;30969;51.052;17.056;2023-04-24T19:45:30;13.38;;;8.40;;
45232;SDS011;30969;51.052;17.056;2023-04-24T19:50:35;12.35;;;8.30;;
45232;SDS011;30969;51.052;17.056;2023-04-24T19:55:41;11.23;;;6.97;;
45232;SDS011;30969;51.052;17.056;2023-04-24T20:00:44;7.75;;;5.13;;
45232;SDS011;30969;51.052;17.056;2023-04-24T20:05:49;5.50;;;4.18;;
45232;SDS011;30969;51.052;17.056;2023-04-24T20:10:54;6.53;;;3.63;;
45232;SDS011;30969;51.052;17.056;2023-04-24T20:15:59;7.97;;;3.65;;
45232;SDS011;30969;51.052;17.056;2023-04-24T20:21:04;5.35;;;3.33;;
45232;SDS011;30969;51.052;17.056;2023-04-24T20:26:09;5.65;;;3.30;;
45232;SDS011;30969;51.052;17.056;2023-04-24T20:31:13;6.93;;;3.65;;
45232;SDS011;30969;51.052;17.056;2023-04-24T20:36:17;6.07;;;3.75;;
45232;SDS011;30969;51.052;17.056;2023-04-24T20:41:22;6.05;;;3.90;;
45232;SDS011;30969;51.052;17.056;2023-04-24T20:46:27;8.13;;;4.15;;
45232;SDS011;30969;51.052;17.056;2023-04-24T20:51:31;7.40;;;4.15;;
45232;SDS011;30969;51.052;17.056;2023-04-24T20:56:36;7.38;;;4.70;;
45232;SDS011;30969;51.052;17.056;2023-04-24T21:01:40;9.15;;;4.68;;
45232;SDS011;30969;51.052;17.056;2023-04-24T21:06:45;6.15;;;4.07;;
45232;SDS011;30969;51.052;17.056;2023-04-24T21:11:49;7.40;;;4.28;;
45232;SDS011;30969;51.052;17.056;2023-04-24T21:16:53;9.50;;;4.00;;
45232;SDS011;30969;51.052;17.056;2023-04-24T21:21:58;9.07;;;4.57;;
45232;SDS011;30969;51.052;17.056;2023-04-24T21:27:03;7.65;;;4.25;;
45232;SDS011;30969;51.052;17.056;2023-04-24T21:32:08;8.93;;;5.40;;
45232;SDS011;30969;51.052;17.056;2023-04-24T21:37:12;7.30;;;4.38;;
45232;SDS011;30969;51.052;17.056;2023-04-24T21:42:17;8.93;;;5.30;;
45232;SDS011;30969;51.052;17.056;2023-04-24T21:47:21;6.90;;;3.95;;
45232;SDS011;30969;51.052;17.056;2023-04-24T21:52:25;7.10;;;5.20;;
45232;SDS011;30969;51.052;17.056;2023-04-24T21:57:30;7.57;;;4.38;;
45232;SDS011;30969;51.052;17.056;2023-04-24T22:02:33;6.15;;;4.05;;
45232;SDS011;30969;51.052;17.056;2023-04-24T22:07:37;6.18;;;3.25;;
45232;SDS011;30969;51.052;17.056;2023-04-24T22:12:42;4.47;;;2.78;;
45232;SDS011;30969;51.052;17.056;2023-04-24T22:17:46;4.13;;;2.60;;
45232;SDS011;30969;51.052;17.056;2023-04-24T22:22:50;8.80;;;2.75;;
45232;SDS011;30969;51.052;17.056;2023-04-24T22:27:55;4.00;;;2.50;;
